createdAt,value
2018-11-26T00:00:38.803Z,25.77
2018-11-26T00:03:11.654Z,27.47
2018-11-26T00:05:40.518Z,26.77
2018-11-26T00:08:09.915Z,27.43
2018-11-26T00:10:49.651Z,29.80
2018-11-26T00:13:17.864Z,27.13
2018-11-26T00:15:46.091Z,24.10
2018-11-26T00:18:14.287Z,25.23
2018-11-26T00:20:42.503Z,27.77
2018-11-26T00:23:10.707Z,27.60
2018-11-26T00:25:38.927Z,28.37
2018-11-26T00:28:07.135Z,32.30
2018-11-26T00:30:35.357Z,23.80
2018-11-26T00:33:03.579Z,24.33
2018-11-26T00:35:31.790Z,27.80
2018-11-26T00:38:00.010Z,27.00
2018-11-26T00:40:28.225Z,24.77
2018-11-26T00:42:56.443Z,26.73
2018-11-26T00:45:24.662Z,25.30
2018-11-26T00:47:52.879Z,19.57
2018-11-26T00:50:21.095Z,15.27
2018-11-26T00:52:49.315Z,17.27
2018-11-26T00:55:17.510Z,15.73
2018-11-26T00:57:45.739Z,19.53
2018-11-26T01:00:13.967Z,22.80
2018-11-26T01:02:42.201Z,24.40
2018-11-26T01:05:20.286Z,28.80
2018-11-26T01:07:48.507Z,28.47
2018-11-26T01:10:16.731Z,27.40
2018-11-26T01:12:44.955Z,27.37
2018-11-26T01:15:13.171Z,25.13
2018-11-26T01:17:41.390Z,15.50
2018-11-26T01:20:09.582Z,17.63
2018-11-26T01:22:37.795Z,14.57
2018-11-26T01:25:06.121Z,11.90
2018-11-26T01:27:34.326Z,11.00
2018-11-26T01:30:02.531Z,12.70
2018-11-26T01:32:30.781Z,15.17
2018-11-26T01:34:58.974Z,12.30
2018-11-26T01:37:27.171Z,13.47
2018-11-26T01:39:55.362Z,15.87
2018-11-26T01:42:23.563Z,15.57
2018-11-26T01:44:51.831Z,16.87
2018-11-26T01:47:20.030Z,16.33
2018-11-26T01:49:48.224Z,20.10
2018-11-26T01:52:16.427Z,17.87
2018-11-26T01:54:44.627Z,17.90
2018-11-26T01:57:12.847Z,22.33
2018-11-26T01:59:41.042Z,23.27
2018-11-26T02:02:09.222Z,23.53
2018-11-26T02:04:37.410Z,22.40
2018-11-26T02:07:05.600Z,21.87
2018-11-26T02:09:33.810Z,20.90
2018-11-26T02:12:02.006Z,23.60
2018-11-26T02:14:30.226Z,23.40
2018-11-26T02:16:58.429Z,21.90
2018-11-26T02:19:26.637Z,19.83
2018-11-26T02:21:54.823Z,19.53
2018-11-26T02:24:23.021Z,17.70
2018-11-26T02:26:51.219Z,21.63
2018-11-26T02:29:19.423Z,21.20
2018-11-26T02:31:47.611Z,18.00
2018-11-26T02:34:15.821Z,21.03
2018-11-26T02:36:44.038Z,22.70
2018-11-26T02:39:12.259Z,21.87
2018-11-26T02:41:40.479Z,18.90
2018-11-26T02:44:08.690Z,22.37
2018-11-26T02:46:36.894Z,22.13
2018-11-26T02:49:05.396Z,20.90
2018-11-26T02:51:33.616Z,23.03
2018-11-26T02:54:01.851Z,23.53
2018-11-26T02:56:30.069Z,20.63
2018-11-26T02:58:58.295Z,23.57
2018-11-26T03:01:26.515Z,25.47
2018-11-26T03:03:54.733Z,22.30
2018-11-26T03:06:22.949Z,23.43
2018-11-26T03:08:51.178Z,23.03
2018-11-26T03:11:19.404Z,22.00
2018-11-26T03:13:47.652Z,27.17
2018-11-26T03:16:15.872Z,20.10
2018-11-26T03:18:44.107Z,22.97
2018-11-26T03:21:12.327Z,19.17
2018-11-26T03:23:40.546Z,24.17
2018-11-26T03:26:08.777Z,25.60
2018-11-26T03:28:37.023Z,25.20
2018-11-26T03:31:06.992Z,24.17
2018-11-26T03:33:35.235Z,26.13
2018-11-26T03:36:03.474Z,25.60
2018-11-26T03:39:07.032Z,24.63
2018-11-26T03:41:35.246Z,21.43
2018-11-26T03:44:03.486Z,25.70
2018-11-26T03:46:31.707Z,23.57
2018-11-26T03:48:59.939Z,20.80
2018-11-26T03:51:28.168Z,23.90
2018-11-26T03:53:56.398Z,22.90
2018-11-26T03:56:24.615Z,25.03
2018-11-26T03:58:52.830Z,27.40
2018-11-26T04:01:21.058Z,29.83
2018-11-26T04:03:49.305Z,23.50
2018-11-26T04:06:17.524Z,24.77
2018-11-26T04:08:45.759Z,24.00
2018-11-26T04:11:13.971Z,24.10
2018-11-26T04:13:42.207Z,25.10
2018-11-26T04:16:10.426Z,24.60
2018-11-26T04:18:38.659Z,25.60
2018-11-26T04:21:06.882Z,25.53
2018-11-26T04:23:35.119Z,22.93
2018-11-26T04:26:03.331Z,24.03
2018-11-26T04:28:31.562Z,26.17
2018-11-26T04:30:59.780Z,25.57
2018-11-26T04:33:28.015Z,26.77
2018-11-26T04:35:56.243Z,28.17
2018-11-26T04:38:24.516Z,27.17
2018-11-26T04:40:52.724Z,28.87
2018-11-26T04:43:20.958Z,28.17
2018-11-26T04:45:49.174Z,22.93
2018-11-26T04:48:17.406Z,25.10
2018-11-26T04:50:45.617Z,27.77
2018-11-26T04:53:13.858Z,21.97
2018-11-26T04:55:42.078Z,23.17
2018-11-26T04:58:10.289Z,26.73
2018-11-26T05:00:38.539Z,24.83
2018-11-26T05:03:06.757Z,28.30
2018-11-26T05:05:34.992Z,25.43
2018-11-26T05:08:03.214Z,20.63
2018-11-26T05:10:31.437Z,24.30
2018-11-26T05:12:59.696Z,25.93
2018-11-26T05:15:27.920Z,24.50
2018-11-26T05:17:56.139Z,27.00
2018-11-26T05:20:24.366Z,26.73
2018-11-26T05:22:52.590Z,22.43
2018-11-26T05:25:20.816Z,25.87
2018-11-26T05:27:49.022Z,28.07
2018-11-26T05:30:17.253Z,26.97
2018-11-26T05:32:45.464Z,27.40
2018-11-26T05:35:13.695Z,28.47
2018-11-26T05:37:41.913Z,32.40
2018-11-26T05:40:11.322Z,27.07
2018-11-26T05:42:39.674Z,29.90
2018-11-26T05:45:09.930Z,29.90
2018-11-26T05:47:38.139Z,29.20
2018-11-26T05:50:08.537Z,26.77
2018-11-26T05:52:37.415Z,30.00
2018-11-26T05:55:06.032Z,31.93
2018-11-26T05:57:34.237Z,28.97
2018-11-26T06:00:02.479Z,27.73
2018-11-26T06:02:30.697Z,28.53
2018-11-26T06:04:58.923Z,31.63
2018-11-26T06:07:27.164Z,29.07
2018-11-26T06:09:55.387Z,31.60
2018-11-26T06:12:23.611Z,31.90
2018-11-26T06:14:51.836Z,29.30
2018-11-26T06:17:20.042Z,33.17
2018-11-26T06:19:48.276Z,31.83
2018-11-26T06:22:16.478Z,30.10
2018-11-26T06:24:44.691Z,26.93
2018-11-26T06:27:12.959Z,32.80
2018-11-26T06:29:41.187Z,28.27
2018-11-26T06:32:09.415Z,29.07
2018-11-26T06:34:42.336Z,32.93
2018-11-26T06:37:06.067Z,26.43
2018-11-26T06:39:34.291Z,27.97
2018-11-26T06:42:02.496Z,26.27
2018-11-26T06:44:30.711Z,27.77
2018-11-26T06:46:58.931Z,30.90
2018-11-26T06:49:27.144Z,31.90
2018-11-26T06:51:55.469Z,30.10
2018-11-26T06:54:23.763Z,27.73
2018-11-26T06:56:51.955Z,24.87
2018-11-26T06:59:20.163Z,26.87
2018-11-26T07:01:48.367Z,26.97
2018-11-26T07:04:16.604Z,24.50
2018-11-26T07:06:44.807Z,24.70
2018-11-26T07:09:13.032Z,29.90
2018-11-26T07:11:41.238Z,27.80
2018-11-26T07:14:09.458Z,40.90
2018-11-26T07:16:37.738Z,28.87
2018-11-26T07:19:06.162Z,27.70
2018-11-26T07:21:34.434Z,31.10
2018-11-26T07:24:02.664Z,23.70
2018-11-26T07:26:30.874Z,27.23
2018-11-26T07:28:59.105Z,26.07
2018-11-26T07:31:27.324Z,29.10
2018-11-26T07:33:55.615Z,26.20
2018-11-26T07:36:23.847Z,33.23
2018-11-26T07:38:52.058Z,22.43
2018-11-26T07:41:20.319Z,24.90
2018-11-26T07:43:48.550Z,25.87
2018-11-26T07:46:16.810Z,26.90
2018-11-26T07:48:45.015Z,31.60
2018-11-26T07:51:13.226Z,24.10
2018-11-26T07:53:41.438Z,31.87
2018-11-26T07:56:10.717Z,26.47
2018-11-26T07:58:38.931Z,23.40
2018-11-26T08:01:07.162Z,28.17
2018-11-26T08:03:35.422Z,26.47
2018-11-26T08:06:08.756Z,24.43
2018-11-26T08:08:31.926Z,23.40
2018-11-26T08:11:00.144Z,24.13
2018-11-26T08:13:28.355Z,28.20
2018-11-26T08:15:56.579Z,25.47
2018-11-26T08:18:24.798Z,25.20
2018-11-26T08:20:53.032Z,26.03
2018-11-26T08:23:21.241Z,26.97
2018-11-26T08:25:49.467Z,28.90
2018-11-26T08:28:17.687Z,26.20
2018-11-26T08:30:45.911Z,29.30
2018-11-26T08:33:14.126Z,28.83
2018-11-26T08:35:42.347Z,29.20
2018-11-26T08:38:18.690Z,28.93
2018-11-26T08:40:49.097Z,30.80
2018-11-26T08:43:24.436Z,28.00
2018-11-26T08:46:02.064Z,31.10
2018-11-26T08:48:30.793Z,30.23
2018-11-26T08:51:00.171Z,27.47
2018-11-26T08:53:28.418Z,24.40
2018-11-26T08:55:56.641Z,31.10
2018-11-26T08:58:24.851Z,29.57
2018-11-26T09:00:58.439Z,29.73
2018-11-26T09:04:03.426Z,29.90
2018-11-26T09:06:31.766Z,32.90
2018-11-26T09:08:59.966Z,29.63
2018-11-26T09:11:28.184Z,29.10
2018-11-26T09:13:56.386Z,24.47
2018-11-26T09:16:24.611Z,26.07
2018-11-26T09:18:52.827Z,29.60
2018-11-26T09:21:21.051Z,31.30
2018-11-26T09:23:49.262Z,25.70
2018-11-26T09:26:17.490Z,25.83
2018-11-26T09:28:45.690Z,25.33
2018-11-26T09:31:13.906Z,24.63
2018-11-26T09:33:42.114Z,25.50
2018-11-26T09:36:10.343Z,25.20
2018-11-26T09:38:38.542Z,25.23
2018-11-26T09:41:06.770Z,32.90
2018-11-26T09:43:35.438Z,27.47
2018-11-26T09:46:03.643Z,22.93
2018-11-26T09:48:31.855Z,23.90
2018-11-26T09:51:00.101Z,24.93
2018-11-26T09:53:28.320Z,24.13
2018-11-26T09:55:56.543Z,26.47
2018-11-26T09:58:24.792Z,26.03
2018-11-26T10:00:53.004Z,27.43
2018-11-26T10:03:21.202Z,25.47
2018-11-26T10:05:49.418Z,25.27
2018-11-26T10:08:17.626Z,26.70
2018-11-26T10:10:45.853Z,23.90
2018-11-26T10:13:14.065Z,29.30
2018-11-26T10:15:42.283Z,24.77
2018-11-26T10:18:10.494Z,28.07
2018-11-26T10:20:38.724Z,25.23
2018-11-26T10:23:06.925Z,27.27
2018-11-26T10:25:35.144Z,25.40
2018-11-26T10:28:03.379Z,24.90
2018-11-26T10:30:31.580Z,23.03
2018-11-26T10:32:59.800Z,21.27
2018-11-26T10:35:27.995Z,19.10
2018-11-26T10:37:56.198Z,21.13
2018-11-26T10:40:25.614Z,21.87
2018-11-26T10:42:53.815Z,20.33
2018-11-26T10:45:22.958Z,24.80
2018-11-26T10:47:51.161Z,24.93
2018-11-26T10:50:23.271Z,19.97
2018-11-26T10:52:52.618Z,21.23
2018-11-26T10:55:23.146Z,25.00
2018-11-26T10:57:51.390Z,25.20
2018-11-26T11:00:24.947Z,26.67
2018-11-26T11:02:53.207Z,25.57
2018-11-26T11:05:21.400Z,23.10
2018-11-26T11:07:49.606Z,20.87
2018-11-26T11:10:20.983Z,22.30
2018-11-26T11:12:49.181Z,21.70
2018-11-26T11:15:17.382Z,22.60
2018-11-26T11:17:45.582Z,25.53
2018-11-26T11:20:20.755Z,21.87
2018-11-26T11:22:48.966Z,23.00
2018-11-26T11:25:17.803Z,23.13
2018-11-26T11:27:46.108Z,24.17
2018-11-26T11:30:23.314Z,26.80
2018-11-26T11:32:51.580Z,19.07
2018-11-26T11:35:20.064Z,19.60
2018-11-26T11:37:49.066Z,21.93
2018-11-26T11:40:28.803Z,22.07
2018-11-26T11:42:57.786Z,17.87
2018-11-26T11:45:26.462Z,23.67
2018-11-26T11:47:54.684Z,21.40
2018-11-26T11:50:23.013Z,21.97
2018-11-26T11:52:51.529Z,23.00
2018-11-26T11:55:20.706Z,21.80
2018-11-26T11:57:48.950Z,23.30
2018-11-26T12:00:28.547Z,19.90
2018-11-26T12:02:56.788Z,22.80
2018-11-26T12:05:24.993Z,23.60
2018-11-26T12:07:53.208Z,22.30
2018-11-26T12:10:21.403Z,21.80
2018-11-26T12:12:49.632Z,22.50
2018-11-26T12:15:17.929Z,22.87
2018-11-26T12:17:47.081Z,21.27
2018-11-26T12:20:15.668Z,21.83
2018-11-26T12:22:44.376Z,21.30
2018-11-26T12:25:14.769Z,21.93
2018-11-26T12:27:43.004Z,21.40
2018-11-26T12:30:13.847Z,25.00
2018-11-26T12:32:42.085Z,21.40
2018-11-26T12:35:10.328Z,20.50
2018-11-26T12:37:38.572Z,22.30
2018-11-26T12:40:09.348Z,20.23
2018-11-26T12:42:37.630Z,20.97
2018-11-26T12:45:22.871Z,22.37
2018-11-26T12:47:51.108Z,18.40
2018-11-26T12:50:19.365Z,22.70
2018-11-26T12:52:47.609Z,18.00
2018-11-26T12:55:16.827Z,25.30
2018-11-26T12:57:45.944Z,20.43
2018-11-26T13:00:19.280Z,19.43
2018-11-26T13:02:49.797Z,26.23
2018-11-26T13:05:19.442Z,17.97
2018-11-26T13:07:47.717Z,21.93
2018-11-26T13:10:17.160Z,23.90
2018-11-26T13:12:46.133Z,23.10
2018-11-26T13:15:15.424Z,22.83
2018-11-26T13:17:43.704Z,20.20
2018-11-26T13:20:17.087Z,21.10
2018-11-26T13:26:04.072Z,20.73
2018-11-26T13:28:34.377Z,21.87
2018-11-26T13:31:03.459Z,19.90
2018-11-26T13:33:32.473Z,25.23
2018-11-26T13:36:00.968Z,21.30
2018-11-26T13:38:30.231Z,17.87
2018-11-26T13:40:58.629Z,19.63
2018-11-26T13:43:26.954Z,19.33
2018-11-26T13:45:55.232Z,19.77
2018-11-26T13:48:23.469Z,21.73
2018-11-26T13:50:53.432Z,19.07
2018-11-26T13:53:21.663Z,17.73
2018-11-26T13:55:49.920Z,17.70
2018-11-26T13:58:18.139Z,19.70
2018-11-26T14:00:46.387Z,20.73
2018-11-26T14:03:14.631Z,18.17
2018-11-26T14:05:42.841Z,21.07
2018-11-26T14:08:11.072Z,17.70
2018-11-26T14:10:39.282Z,19.40
2018-11-26T14:13:09.980Z,19.27
2018-11-26T14:15:38.191Z,22.73
2018-11-26T14:18:06.428Z,25.57
2018-11-26T14:20:34.653Z,20.20
2018-11-26T14:23:02.884Z,22.40
2018-11-26T14:25:31.130Z,23.67
2018-11-26T14:27:59.356Z,24.10
2018-11-26T14:30:28.555Z,24.43
2018-11-26T14:32:56.937Z,26.40
2018-11-26T14:35:25.184Z,22.00
2018-11-26T14:37:54.905Z,22.07
2018-11-26T14:40:31.483Z,28.53
2018-11-26T14:42:59.697Z,26.07
2018-11-26T14:45:27.890Z,26.33
2018-11-26T14:47:56.099Z,28.10
2018-11-26T14:50:24.295Z,27.93
2018-11-26T14:52:52.495Z,22.77
2018-11-26T14:55:28.800Z,24.83
2018-11-26T14:57:57.013Z,25.07
2018-11-26T15:00:25.238Z,23.27
2018-11-26T15:02:53.444Z,24.47
2018-11-26T15:05:21.633Z,23.10
2018-11-26T15:07:49.838Z,24.07
2018-11-26T15:10:20.417Z,26.50
2018-11-26T15:12:48.687Z,24.13
2018-11-26T15:15:19.227Z,29.63
2018-11-26T15:17:47.568Z,29.30
2018-11-26T15:20:21.953Z,26.77
2018-11-26T15:22:50.733Z,22.50
2018-11-26T15:25:21.743Z,27.60
2018-11-26T15:27:50.541Z,24.27
2018-11-26T15:30:19.856Z,26.40
2018-11-26T15:32:48.241Z,27.40
2018-11-26T15:35:18.303Z,27.83
2018-11-26T15:37:46.537Z,30.67
2018-11-26T15:40:15.600Z,26.97
2018-11-26T15:42:43.890Z,27.53
2018-11-26T15:45:15.324Z,28.73
2018-11-26T15:47:43.548Z,25.93
2018-11-26T15:50:11.755Z,29.77
2018-11-26T15:52:39.980Z,28.50
2018-11-26T15:55:10.568Z,30.70
2018-11-26T15:57:38.804Z,28.83
2018-11-26T16:00:19.300Z,30.60
2018-11-26T16:02:47.557Z,33.60
2018-11-26T16:05:17.860Z,34.03
2018-11-26T16:07:46.528Z,34.23
2018-11-26T16:10:15.132Z,31.47
2018-11-26T16:12:44.200Z,35.30
2018-11-26T16:15:14.108Z,32.43
2018-11-26T16:17:42.364Z,33.30
2018-11-26T16:20:12.212Z,33.47
2018-11-26T16:22:40.548Z,35.57
2018-11-26T16:25:11.312Z,32.37
2018-11-26T16:27:39.534Z,39.43
2018-11-26T16:30:10.139Z,35.57
2018-11-26T16:32:38.447Z,30.57
2018-11-26T16:35:11.785Z,37.73
2018-11-26T16:37:40.026Z,35.60
2018-11-26T16:40:12.852Z,34.17
2018-11-26T16:42:41.068Z,35.20
2018-11-26T16:45:11.253Z,39.10
2018-11-26T16:47:39.472Z,38.80
2018-11-26T16:50:09.744Z,33.93
2018-11-26T16:52:37.952Z,37.10
2018-11-26T16:55:09.672Z,38.33
2018-11-26T16:57:37.927Z,38.53
2018-11-26T17:00:15.185Z,35.57
2018-11-26T17:02:43.545Z,37.90
2018-11-26T17:05:13.242Z,37.10
2018-11-26T17:07:41.451Z,38.73
2018-11-26T17:10:10.419Z,40.07
2018-11-26T17:12:38.872Z,43.60
2018-11-26T17:15:09.513Z,36.83
2018-11-26T17:17:37.778Z,39.80
2018-11-26T17:20:07.100Z,36.27
2018-11-26T17:22:35.316Z,35.77
2018-11-26T17:25:03.580Z,40.00
2018-11-26T17:27:31.991Z,39.77
2018-11-26T17:30:00.215Z,39.80
2018-11-26T17:32:28.424Z,39.80
2018-11-26T17:34:56.656Z,40.57
2018-11-26T17:37:24.900Z,43.33
2018-11-26T17:39:53.114Z,38.37
2018-11-26T17:42:21.356Z,42.27
2018-11-26T17:44:49.561Z,42.73
2018-11-26T17:47:17.776Z,48.97
2018-11-26T17:49:46.004Z,46.07
2018-11-26T17:52:14.281Z,39.07
2018-11-26T17:54:42.527Z,41.43
2018-11-26T17:57:10.732Z,37.00
2018-11-26T17:59:39.004Z,46.50
2018-11-26T18:02:07.501Z,44.40
2018-11-26T18:04:35.790Z,42.43
2018-11-26T18:07:04.065Z,41.40
2018-11-26T18:09:32.332Z,40.27
2018-11-26T18:12:00.532Z,46.33
2018-11-26T18:14:28.749Z,43.43
2018-11-26T18:16:56.980Z,41.40
2018-11-26T18:19:25.195Z,42.50
2018-11-26T18:21:53.385Z,40.57
2018-11-26T18:24:21.580Z,43.07
2018-11-26T18:26:49.794Z,44.90
2018-11-26T18:29:18.000Z,41.83
2018-11-26T18:31:46.217Z,42.47
2018-11-26T18:34:14.411Z,45.00
2018-11-26T18:36:42.662Z,42.70
2018-11-26T18:39:11.083Z,43.80
2018-11-26T18:41:39.328Z,44.00
2018-11-26T18:44:07.580Z,44.30
2018-11-26T18:46:35.812Z,40.53
2018-11-26T18:49:04.034Z,44.93
2018-11-26T18:51:32.268Z,43.07
2018-11-26T18:54:00.491Z,41.30
2018-11-26T18:56:28.717Z,44.30
2018-11-26T18:58:56.948Z,39.20
2018-11-26T19:01:25.172Z,44.60
2018-11-26T19:03:53.512Z,40.60
2018-11-26T19:06:21.740Z,43.80
2018-11-26T19:08:49.968Z,40.80
2018-11-26T19:11:18.816Z,41.53
2018-11-26T19:13:57.755Z,36.97
2018-11-26T19:16:29.000Z,35.20
2018-11-26T19:18:57.215Z,38.33
2018-11-26T19:21:25.506Z,36.50
2018-11-26T19:23:53.729Z,42.40
2018-11-26T19:26:21.971Z,46.03
2018-11-26T19:28:50.205Z,39.60
2018-11-26T19:31:18.428Z,35.07
2018-11-26T19:33:46.663Z,36.07
2018-11-26T19:36:14.893Z,39.93
2018-11-26T19:38:43.113Z,44.50
2018-11-26T19:41:11.658Z,35.70
2018-11-26T19:43:40.398Z,44.90
2018-11-26T19:46:09.105Z,39.80
2018-11-26T19:48:37.324Z,36.77
2018-11-26T19:51:05.692Z,43.40
2018-11-26T19:53:35.313Z,38.93
2018-11-26T19:56:04.158Z,40.37
2018-11-26T19:58:32.357Z,40.00
2018-11-26T20:01:00.600Z,43.67
2018-11-26T20:03:32.285Z,36.57
2018-11-26T20:06:06.384Z,45.30
2018-11-26T20:08:34.859Z,36.50
2018-11-26T20:11:03.069Z,37.40
2018-11-26T20:13:31.294Z,39.40
2018-11-26T20:15:59.640Z,43.20
2018-11-26T20:18:28.552Z,41.30
2018-11-26T20:20:56.080Z,38.13
2018-11-26T20:23:24.304Z,42.30
2018-11-26T20:25:52.530Z,35.97
2018-11-26T20:28:20.855Z,37.67
2018-11-26T20:30:49.073Z,36.53
2018-11-26T20:33:17.284Z,40.50
2018-11-26T20:35:45.493Z,35.80
2018-11-26T20:38:15.291Z,31.63
2018-11-26T20:40:43.597Z,34.40
2018-11-26T20:43:12.789Z,34.20
2018-11-26T20:45:42.485Z,29.40
2018-11-26T20:48:11.075Z,32.73
2018-11-26T20:50:41.268Z,36.67
2018-11-26T20:53:10.052Z,29.03
2018-11-26T20:55:38.361Z,30.40
2018-11-26T20:58:06.610Z,30.27
2018-11-26T21:00:34.959Z,32.57
2018-11-26T21:03:10.982Z,26.47
2018-11-26T21:05:40.053Z,27.90
2018-11-26T21:08:08.329Z,26.63
2018-11-26T21:10:36.681Z,30.80
2018-11-26T21:13:04.914Z,26.63
2018-11-26T21:15:33.134Z,27.10
2018-11-26T21:18:03.882Z,26.00
2018-11-26T21:20:34.694Z,24.03
2018-11-26T21:23:03.649Z,26.10
2018-11-26T21:25:32.104Z,31.60
2018-11-26T21:28:00.398Z,28.60
2018-11-26T21:30:28.697Z,27.00
2018-11-26T21:32:56.916Z,27.47
2018-11-26T21:35:25.129Z,28.77
2018-11-26T21:37:53.547Z,27.90
2018-11-26T21:40:23.271Z,29.77
2018-11-26T21:42:51.532Z,31.23
2018-11-26T21:45:23.116Z,29.17
2018-11-26T21:47:51.344Z,28.17
2018-11-26T21:50:19.567Z,25.83
2018-11-26T21:52:47.851Z,28.40
2018-11-26T21:55:17.568Z,26.80
2018-11-26T21:57:46.070Z,25.17
2018-11-26T22:00:16.464Z,28.43
2018-11-26T22:02:45.117Z,24.50
2018-11-26T22:05:13.373Z,28.50
2018-11-26T22:07:41.585Z,26.60
2018-11-26T22:10:11.606Z,28.83
2018-11-26T22:12:39.900Z,29.57
2018-11-26T22:15:10.863Z,27.03
2018-11-26T22:17:39.510Z,27.80
2018-11-26T22:20:11.580Z,28.00
2018-11-26T22:22:39.794Z,28.00
2018-11-26T22:25:10.144Z,27.50
2018-11-26T22:27:38.400Z,24.57
2018-11-26T22:30:22.742Z,25.00
2018-11-26T22:32:50.954Z,28.10
2018-11-26T22:35:19.216Z,29.67
2018-11-26T22:37:47.438Z,27.57
2018-11-26T22:40:19.231Z,29.37
2018-11-26T22:42:47.462Z,25.57
2018-11-26T22:45:20.188Z,23.30
2018-11-26T22:47:57.128Z,25.93
2018-11-26T22:50:25.338Z,28.60
2018-11-26T22:52:53.549Z,27.33
2018-11-26T22:55:22.538Z,28.37
2018-11-26T22:57:49.989Z,29.37
2018-11-26T23:00:25.478Z,28.37
2018-11-26T23:02:54.990Z,31.67
2018-11-26T23:05:23.219Z,28.57
2018-11-26T23:07:51.421Z,28.03
2018-11-26T23:10:19.650Z,25.90
2018-11-26T23:12:47.856Z,28.30
2018-11-26T23:15:16.470Z,25.97
2018-11-26T23:17:45.547Z,27.77
2018-11-26T23:20:14.652Z,30.43
2018-11-26T23:22:42.923Z,31.10
2018-11-26T23:25:13.979Z,30.63
2018-11-26T23:27:42.220Z,30.00
2018-11-26T23:30:23.368Z,33.67
2018-11-26T23:32:53.953Z,31.73
2018-11-26T23:35:22.188Z,28.27
2018-11-26T23:37:50.412Z,29.43
2018-11-26T23:40:18.621Z,31.70
2018-11-26T23:42:46.832Z,26.50
2018-11-26T23:45:16.172Z,26.87
2018-11-26T23:47:44.411Z,29.70
2018-11-26T23:50:14.263Z,26.53
2018-11-26T23:52:42.721Z,28.60
2018-11-26T23:55:12.883Z,26.17
2018-11-26T23:57:41.083Z,22.10
